To NAV CANADA Home Page Login to a new session Search on AWWS site Feedback and Comments Disclaimer Vers la page française équivalente Tips FAQ What's new on the site To the Forecasts and Observations / NOTAM section To "File a Flight Plan" website Publications and other links Update of the User's profile FIC Telephone Numbers My Weather Data Folder Route Weather Data Regional Weather Data Local Weather Data To the Forecasts and Observations / NOTAM section
Request Generated 08/22/2017 at 01:41:41 UTC . Weather information available at that time is displayed.

METAR/TAF

If you find any discrepancies between the coded METAR/TAF and the plain language METAR/TAF please use the coded METAR/TAF. LWIS bulletins are not decoded in plain language.

CALGARY/SPRINGBANK/AB    (show WxCam)

METAR CYBW 220100Z AUTO 15008KT 9SM FEW090 21/06 A3013 RMK SLP217 DENSITY ALT 5200FT=
METAR
LOCATION
CYBW - CALGARY/SPRINGBANK/AB
DATE - TIME
22 AUGUST 2017 - 0100 UTC
WIND
150 TRUE @ 8  KNOTS
VISIBILITY
9 STAT.  MILES
RUNWAY VISUAL RANGE
WEATHER
CLOUDINESS
FEW CLOUDS (1/8 - 2/8) 9000  FT
TEMP / DEWPOINT
21 C / 6 C
ALTIMETER
30.13 IN HG
RECENT WEATHER
WIND SHEAR

METAR CYBW 220000Z AUTO 13009KT 9SM OVC090 21/05 A3014 RMK SLP218 DENSITY ALT 5200FT=
METAR
LOCATION
CYBW - CALGARY/SPRINGBANK/AB
DATE - TIME
22 AUGUST 2017 - 0000 UTC
WIND
130 TRUE @ 9  KNOTS
VISIBILITY
9 STAT.  MILES
RUNWAY VISUAL RANGE
WEATHER
CLOUDINESS
OVERCAST 9000  FT
TEMP / DEWPOINT
21 C / 5 C
ALTIMETER
30.14 IN HG
RECENT WEATHER
WIND SHEAR

METAR CYBW 212300Z AUTO 13008KT 9SM OVC090 22/05 A3014 RMK SLP217 DENSITY ALT 5300FT=
METAR
LOCATION
CYBW - CALGARY/SPRINGBANK/AB
DATE - TIME
21 AUGUST 2017 - 2300 UTC
WIND
130 TRUE @ 8  KNOTS
VISIBILITY
9 STAT.  MILES
RUNWAY VISUAL RANGE
WEATHER
CLOUDINESS
OVERCAST 9000  FT
TEMP / DEWPOINT
22 C / 5 C
ALTIMETER
30.14 IN HG
RECENT WEATHER
WIND SHEAR

TAF CYBW 212340Z 2200/2204 13008KT P6SM BKN090 RMK FCST BASED ON AUTO OBS. NXT FCST WILL BE ISSUED AT 221145Z=
TAF
LOCATION

CYBW - CALGARY/SPRINGBANK/AB
VALIDITY [UTC]
21 AUG - 2340 to
22 AUG - 0400
 
TIMES
[UTC]
WIND
[DEGREES TRUE]
VISIBILITY
[STAT. MILES]
WEATHER
CLOUDINESS
[FEET AGL]
 
22 AUG - 0000 to
22 AUG - 0400
130 @ 8 KNOTS
6+
NIL
9000 BROKEN
REMARKS
THE FORECAST IS BASED ON AUTOMATIC OBSERVATIONS - THE NEXT FORECAST WILL BE ISSUED AT 1145 UTC ON DAY 22


Your time UTC time
Weather data provided by Environment Canada and NAV CANADA